Time;durP1;ratioP1;P1;durP2;ratioP2;P2;SDS_P1;SDS_P2;PMS_P1;PMS_P2;Temp;Humidity;BMP_temperature;BMP_pressure;BME280_temperature;BME280_humidity;BME280_pressure;Samples;Min_cycle;Max_cycle;Signal;HPM_P1;HPM_P2
2021/11/05 00:01:53;;;;;;;1.30;0.80;;;7.70;99.90;;;;;;5074104;28;20028;-82
2021/11/05 00:04:19;;;;;;;3.95;0.98;;;7.70;99.90;;;;;;5074104;28;20044;-83
2021/11/05 00:06:44;;;;;;;7.70;1.40;;;7.70;99.90;;;;;;5053599;28;20103;-81
2021/11/05 00:09:10;;;;;;;2.67;1.27;;;7.60;99.90;;;;;;5051884;28;20016;-81
2021/11/05 00:11:35;;;;;;;3.80;0.95;;;7.60;99.90;;;;;;5055876;28;20111;-82
2021/11/05 00:14:01;;;;;;;2.45;1.15;;;7.60;99.90;;;;;;5056404;28;20082;-82
2021/11/05 00:16:27;;;;;;;2.20;1.10;;;7.60;99.90;;;;;;5056879;28;20021;-86
2021/11/05 00:18:52;;;;;;;3.28;1.02;;;7.60;99.90;;;;;;5056259;28;20464;-84
2021/11/05 00:21:18;;;;;;;4.85;1.17;;;7.60;99.90;;;;;;5056449;28;20060;-85
2021/11/05 00:23:45;;;;;;;1.83;1.08;;;7.60;99.90;;;;;;5058023;28;20024;-82
2021/11/05 00:26:11;;;;;;;1.05;0.95;;;7.50;99.90;;;;;;5074590;28;20056;-83
2021/11/05 00:28:36;;;;;;;4.90;1.30;;;7.50;99.90;;;;;;5056383;28;20013;-83
2021/11/05 00:31:02;;;;;;;5.20;1.25;;;7.40;99.90;;;;;;5072494;28;20051;-86
2021/11/05 00:33:28;;;;;;;3.70;1.05;;;7.40;99.90;;;;;;5075430;28;20472;-84
2021/11/05 00:35:53;;;;;;;3.78;0.90;;;7.50;99.90;;;;;;5073286;28;20074;-80
2021/11/05 00:38:19;;;;;;;3.13;1.15;;;7.50;99.90;;;;;;5055501;28;20032;-81
2021/11/05 00:40:44;;;;;;;4.32;1.30;;;7.50;99.90;;;;;;5055300;28;20033;-82
2021/11/05 00:43:12;;;;;;;7.85;1.38;;;7.50;99.90;;;;;;5071067;28;20033;-83
2021/11/05 00:45:38;;;;;;;9.52;1.45;;;7.40;99.90;;;;;;5073733;28;20032;-79
2021/11/05 00:48:04;;;;;;;4.78;1.02;;;7.40;99.90;;;;;;5073972;28;20503;-80
2021/11/05 00:50:31;;;;;;;5.60;0.80;;;7.40;99.90;;;;;;5056312;28;20043;-84
2021/11/05 00:52:57;;;;;;;3.17;1.20;;;7.40;99.90;;;;;;5049940;28;20028;-82
2021/11/05 00:55:24;;;;;;;4.75;0.98;;;7.30;99.90;;;;;;5036213;28;20053;-81
2021/11/05 00:57:50;;;;;;;1.17;0.90;;;7.40;99.90;;;;;;5037544;28;20070;-79
2021/11/05 01:00:16;;;;;;;2.67;0.70;;;7.30;99.90;;;;;;5049563;28;20063;-81
2021/11/05 01:02:43;;;;;;;3.83;1.10;;;7.30;99.90;;;;;;5058965;28;20033;-80
2021/11/05 01:05:10;;;;;;;9.82;1.27;;;7.30;99.90;;;;;;5065869;28;20520;-78
2021/11/05 01:07:35;;;;;;;2.45;1.15;;;7.30;99.90;;;;;;5057713;28;20459;-78
2021/11/05 01:10:01;;;;;;;7.75;1.48;;;7.20;99.90;;;;;;5059430;28;20100;-79
2021/11/05 01:12:28;;;;;;;3.35;1.35;;;7.20;99.90;;;;;;5044818;28;20054;-79
2021/11/05 01:14:53;;;;;;;1.10;1.02;;;7.20;99.90;;;;;;5046676;28;20055;-80
2021/11/05 01:17:21;;;;;;;2.03;1.20;;;7.20;99.90;;;;;;5071118;28;20029;-79
2021/11/05 01:19:46;;;;;;;4.40;1.40;;;7.20;99.90;;;;;;5051785;28;20033;-79
2021/11/05 01:22:12;;;;;;;3.08;1.10;;;7.20;99.90;;;;;;5061124;28;20649;-80
2021/11/05 01:24:39;;;;;;;3.38;1.10;;;7.20;99.90;;;;;;5041525;28;20440;-80
2021/11/05 01:27:05;;;;;;;1.42;0.85;;;7.20;99.90;;;;;;5058740;28;20428;-81
2021/11/05 01:29:31;;;;;;;3.97;1.48;;;7.20;99.90;;;;;;5072417;28;20027;-82
2021/11/05 01:31:57;;;;;;;4.35;1.25;;;7.20;99.90;;;;;;5055032;28;20025;-80
2021/11/05 01:34:23;;;;;;;4.32;1.10;;;7.30;99.90;;;;;;5072312;28;20064;-80
2021/11/05 01:36:49;;;;;;;3.03;1.60;;;7.30;99.90;;;;;;5070511;28;20457;-79
2021/11/05 01:39:16;;;;;;;2.20;0.98;;;7.30;99.90;;;;;;5071948;28;20481;-80
2021/11/05 01:41:42;;;;;;;2.45;1.60;;;7.30;99.90;;;;;;5072588;28;20086;-81
2021/11/05 01:44:08;;;;;;;3.38;1.27;;;7.30;99.90;;;;;;5072127;28;20386;-80
2021/11/05 01:46:41;;;;;;;3.75;1.38;;;7.30;99.90;;;;;;5072600;28;20484;-81
2021/11/05 01:49:08;;;;;;;2.17;0.90;;;7.30;99.90;;;;;;5071680;28;20024;-81
2021/11/05 01:51:38;;;;;;;4.77;2.07;;;7.30;99.90;;;;;;5069618;28;20025;-81
2021/11/05 01:54:08;;;;;;;3.92;0.90;;;7.30;99.90;;;;;;5075724;28;20029;-80
2021/11/05 01:56:35;;;;;;;0.90;0.85;;;7.20;99.90;;;;;;5075393;28;20498;-81
2021/11/05 01:59:01;;;;;;;2.05;1.20;;;7.30;99.90;;;;;;5076505;28;20495;-80
2021/11/05 02:01:26;;;;;;;2.63;1.35;;;7.30;99.90;;;;;;5054866;28;20024;-80
2021/11/05 02:03:52;;;;;;;5.18;1.75;;;7.30;99.90;;;;;;5072584;28;20500;-80
2021/11/05 02:06:22;;;;;;;2.70;0.93;;;7.20;99.90;;;;;;5075125;28;20024;-80
2021/11/05 02:08:51;;;;;;;3.72;1.00;;;7.20;99.90;;;;;;5067461;28;20537;-79
2021/11/05 02:11:19;;;;;;;3.00;1.02;;;7.20;99.90;;;;;;5098062;28;20051;-81
2021/11/05 02:13:46;;;;;;;1.35;1.00;;;7.20;99.90;;;;;;5082247;28;20028;-80
2021/11/05 02:16:12;;;;;;;0.97;0.80;;;7.20;99.90;;;;;;5081617;28;20024;-80
2021/11/05 02:18:43;;;;;;;3.72;1.33;;;7.20;99.90;;;;;;5082085;28;20025;-77
2021/11/05 02:21:15;;;;;;;1.48;0.90;;;7.20;99.90;;;;;;5083041;28;20040;-78
2021/11/05 02:23:41;;;;;;;0.90;0.90;;;7.20;99.90;;;;;;5096277;28;20029;-78
2021/11/05 02:26:07;;;;;;;5.32;0.80;;;7.10;99.90;;;;;;5097894;28;20036;-79
2021/11/05 02:28:40;;;;;;;4.05;1.02;;;7.10;99.90;;;;;;5101033;28;20024;-80
2021/11/05 02:31:07;;;;;;;6.53;1.13;;;7.10;99.90;;;;;;5083162;28;20025;-79
2021/11/05 02:33:33;;;;;;;4.35;0.80;;;7.10;99.90;;;;;;5100261;28;20029;-79
2021/11/05 02:35:59;;;;;;;3.45;1.00;;;7.10;99.90;;;;;;5100618;28;20068;-79
2021/11/05 02:38:25;;;;;;;4.35;0.75;;;7.10;99.90;;;;;;5101135;28;20039;-79
2021/11/05 02:40:52;;;;;;;4.70;0.88;;;7.10;99.90;;;;;;5083486;28;20001;-78
2021/11/05 02:43:18;;;;;;;4.10;1.13;;;7.10;99.90;;;;;;5100221;28;21069;-77
2021/11/05 02:45:51;;;;;;;1.42;1.00;;;7.10;99.90;;;;;;5076384;28;20025;-78
2021/11/05 02:48:17;;;;;;;2.78;0.63;;;7.10;99.90;;;;;;5073525;28;20108;-78
2021/11/05 02:50:44;;;;;;;3.50;1.58;;;7.10;99.90;;;;;;5096674;28;20027;-79
2021/11/05 02:53:10;;;;;;;1.85;0.82;;;7.10;99.90;;;;;;5083338;28;20024;-79
2021/11/05 02:55:36;;;;;;;6.40;0.75;;;7.10;99.90;;;;;;5098165;28;20025;-78
2021/11/05 02:58:02;;;;;;;2.13;0.68;;;7.00;99.90;;;;;;5100093;28;20062;-79
2021/11/05 03:00:29;;;;;;;0.90;0.50;;;7.10;99.90;;;;;;5097196;28;20032;-79
2021/11/05 03:02:55;;;;;;;0.60;0.60;;;7.00;99.90;;;;;;5099339;28;20009;-79
2021/11/05 03:05:21;;;;;;;1.67;0.70;;;7.00;99.90;;;;;;5097849;28;20127;-79
2021/11/05 03:07:46;;;;;;;5.90;0.75;;;7.00;99.90;;;;;;5086590;28;20029;-80
2021/11/05 03:10:15;;;;;;;2.60;0.93;;;7.00;99.90;;;;;;5073166;28;20016;-81
2021/11/05 03:12:41;;;;;;;3.20;0.95;;;7.00;99.90;;;;;;5078864;28;20025;-81
2021/11/05 03:15:08;;;;;;;0.98;0.80;;;6.90;99.90;;;;;;5067720;28;20050;-81
2021/11/05 03:17:35;;;;;;;1.73;0.80;;;6.90;99.90;;;;;;5049931;28;20060;-80
2021/11/05 03:20:00;;;;;;;6.78;0.98;;;7.00;99.90;;;;;;5067917;28;20032;-80
2021/11/05 03:22:27;;;;;;;3.15;0.90;;;6.90;99.90;;;;;;5040244;28;20037;-80
2021/11/05 03:24:52;;;;;;;3.92;1.10;;;6.90;99.90;;;;;;5056770;28;20081;-80
2021/11/05 03:27:19;;;;;;;3.90;0.90;;;6.90;99.90;;;;;;5056323;28;20107;-80
2021/11/05 03:29:46;;;;;;;3.13;0.70;;;6.90;99.90;;;;;;5068635;28;20024;-80
2021/11/05 03:32:11;;;;;;;1.88;1.10;;;6.90;99.90;;;;;;5061350;28;20043;-80
2021/11/05 03:34:37;;;;;;;4.90;0.80;;;6.90;99.90;;;;;;5050743;28;20044;-81
2021/11/05 03:37:04;;;;;;;4.50;0.80;;;6.80;99.90;;;;;;5074437;28;20545;-80
2021/11/05 03:39:30;;;;;;;1.17;0.70;;;6.80;99.90;;;;;;5070324;28;20029;-79
2021/11/05 03:41:56;;;;;;;2.13;0.73;;;6.80;99.90;;;;;;5055548;28;20102;-78
2021/11/05 03:44:22;;;;;;;1.15;0.70;;;6.80;99.90;;;;;;5070540;28;20036;-79
2021/11/05 03:46:48;;;;;;;0.80;0.55;;;6.70;99.90;;;;;;5055475;28;20409;-79
2021/11/05 03:49:14;;;;;;;1.50;0.63;;;6.70;99.90;;;;;;5072742;28;20468;-80
2021/11/05 03:51:39;;;;;;;1.08;0.63;;;6.70;99.90;;;;;;5073822;28;20016;-79
2021/11/05 03:54:06;;;;;;;1.85;0.80;;;6.70;99.90;;;;;;5060637;28;20029;-79
2021/11/05 03:56:33;;;;;;;3.83;0.70;;;6.60;99.90;;;;;;5072776;28;20029;-79
2021/11/05 03:58:59;;;;;;;1.08;0.75;;;6.60;99.90;;;;;;5067868;28;20052;-78
2021/11/05 04:01:25;;;;;;;1.05;0.65;;;6.60;99.90;;;;;;5068176;28;20021;-79
2021/11/05 04:03:51;;;;;;;0.63;0.52;;;6.50;99.90;;;;;;5035540;28;20028;-78
2021/11/05 04:06:18;;;;;;;3.83;1.10;;;6.50;99.90;;;;;;5053754;28;20066;-78
2021/11/05 04:08:44;;;;;;;2.05;0.80;;;6.50;99.90;;;;;;5055420;28;20024;-79
2021/11/05 04:11:10;;;;;;;1.42;0.80;;;6.50;99.90;;;;;;5038971;28;20219;-79
2021/11/05 04:13:36;;;;;;;2.05;0.77;;;6.50;99.90;;;;;;5056043;28;20044;-79
2021/11/05 04:16:01;;;;;;;0.80;0.80;;;6.50;99.90;;;;;;5050263;28;20436;-79
2021/11/05 04:18:27;;;;;;;0.95;0.70;;;6.50;99.90;;;;;;5067836;28;20095;-79
2021/11/05 04:20:53;;;;;;;1.08;0.77;;;6.50;99.90;;;;;;5073418;28;20020;-79
2021/11/05 04:23:18;;;;;;;0.80;0.80;;;6.50;99.90;;;;;;5054958;28;20032;-80
2021/11/05 04:25:46;;;;;;;1.08;0.93;;;6.40;99.90;;;;;;5053393;28;20034;-78
2021/11/05 04:28:12;;;;;;;2.97;1.00;;;6.50;99.90;;;;;;5073116;28;20477;-81
2021/11/05 04:30:38;;;;;;;0.80;0.68;;;6.50;99.90;;;;;;5054571;28;20033;-80
2021/11/05 04:33:04;;;;;;;6.63;1.30;;;6.50;99.90;;;;;;5072577;28;20035;-78
2021/11/05 04:35:30;;;;;;;3.53;1.52;;;6.50;99.90;;;;;;5072260;28;20397;-79
2021/11/05 04:37:56;;;;;;;2.22;0.82;;;6.50;99.90;;;;;;5073535;28;20051;-79
2021/11/05 04:40:21;;;;;;;1.70;1.02;;;6.50;99.90;;;;;;5071163;28;20050;-79
2021/11/05 04:42:47;;;;;;;3.33;0.93;;;6.50;99.90;;;;;;5071951;28;20401;-79
2021/11/05 04:45:13;;;;;;;2.60;1.30;;;6.50;99.90;;;;;;5054884;28;20025;-79
2021/11/05 04:47:39;;;;;;;1.10;0.85;;;6.50;99.90;;;;;;5072845;28;20025;-79
2021/11/05 04:50:06;;;;;;;2.70;0.93;;;6.50;99.90;;;;;;5052931;28;20023;-79
2021/11/05 04:52:32;;;;;;;2.65;1.00;;;6.50;99.90;;;;;;5039391;28;20562;-80
2021/11/05 04:54:58;;;;;;;3.38;1.30;;;6.50;99.90;;;;;;5049640;28;20029;-80
2021/11/05 04:57:24;;;;;;;5.25;0.93;;;6.50;99.90;;;;;;5072667;28;20035;-79
2021/11/05 04:59:50;;;;;;;1.10;0.80;;;6.50;99.90;;;;;;5054616;28;20036;-79
2021/11/05 05:02:17;;;;;;;5.10;0.50;;;6.50;99.90;;;;;;5070546;28;20043;-80
2021/11/05 05:04:45;;;;;;;1.40;0.90;;;6.50;99.90;;;;;;5051175;28;20041;-80
2021/11/05 05:07:14;;;;;;;5.25;1.27;;;6.50;99.90;;;;;;5052674;28;20025;-80
2021/11/05 05:09:40;;;;;;;5.05;0.77;;;6.50;99.90;;;;;;5050628;28;20108;-80
2021/11/05 05:12:06;;;;;;;4.30;1.63;;;6.50;99.90;;;;;;5037894;28;20111;-79
2021/11/05 05:14:32;;;;;;;2.35;1.08;;;6.50;99.90;;;;;;5052978;28;20083;-80
2021/11/05 05:16:58;;;;;;;2.17;1.02;;;6.50;99.90;;;;;;5052612;28;20439;-80
2021/11/05 05:19:24;;;;;;;3.08;0.90;;;6.50;99.90;;;;;;5051187;28;20063;-81
2021/11/05 05:21:50;;;;;;;3.60;0.80;;;6.50;99.90;;;;;;5045036;28;20029;-81
2021/11/05 05:24:15;;;;;;;5.32;0.90;;;6.50;99.90;;;;;;5050777;28;20464;-80
2021/11/05 05:26:41;;;;;;;3.33;0.93;;;6.50;99.90;;;;;;5053146;28;20021;-80
2021/11/05 05:29:07;;;;;;;1.85;0.98;;;6.60;99.90;;;;;;5055070;28;20391;-80
2021/11/05 05:31:32;;;;;;;1.98;1.02;;;6.60;99.90;;;;;;5041830;28;20498;-80
2021/11/05 05:33:58;;;;;;;6.97;1.10;;;6.60;99.90;;;;;;5037316;28;20560;-81
2021/11/05 05:36:24;;;;;;;2.13;0.82;;;6.50;99.90;;;;;;5053992;28;20040;-81
2021/11/05 05:38:49;;;;;;;4.00;1.15;;;6.50;99.90;;;;;;5055290;28;20045;-80
2021/11/05 05:41:16;;;;;;;2.25;1.08;;;6.60;99.90;;;;;;5055259;28;20036;-81
2021/11/05 05:43:43;;;;;;;4.72;1.42;;;6.50;99.90;;;;;;5054973;28;20029;-81
2021/11/05 05:46:09;;;;;;;3.28;1.10;;;6.50;99.90;;;;;;5051060;28;20033;-81
2021/11/05 05:48:34;;;;;;;2.63;1.08;;;6.50;99.90;;;;;;5035467;28;20026;-80
2021/11/05 05:51:00;;;;;;;1.52;0.90;;;6.60;99.90;;;;;;5046224;28;20113;-80
2021/11/05 05:53:26;;;;;;;7.30;1.40;;;6.60;99.90;;;;;;5049557;28;20540;-80
2021/11/05 05:55:51;;;;;;;7.20;1.30;;;6.70;99.90;;;;;;5054196;28;20101;-81
2021/11/05 05:58:17;;;;;;;5.85;1.35;;;6.70;99.90;;;;;;5049620;28;20473;-81
2021/11/05 06:00:43;;;;;;;2.60;1.30;;;6.80;99.90;;;;;;5038867;28;20033;-81
2021/11/05 06:03:09;;;;;;;1.20;1.10;;;6.80;99.90;;;;;;5056275;28;20029;-80
2021/11/05 06:05:35;;;;;;;5.75;1.25;;;6.80;99.90;;;;;;5053060;28;20041;-81
2021/11/05 06:08:01;;;;;;;4.72;1.00;;;6.80;99.90;;;;;;5055755;28;20488;-80
2021/11/05 06:10:26;;;;;;;4.47;0.98;;;6.80;99.90;;;;;;5054544;28;20029;-80
2021/11/05 06:12:52;;;;;;;3.20;1.55;;;6.80;99.90;;;;;;5046636;28;20021;-80
2021/11/05 06:15:18;;;;;;;5.88;2.10;;;6.80;99.90;;;;;;5043649;28;20033;-81
2021/11/05 06:17:44;;;;;;;0.98;0.98;;;6.90;99.90;;;;;;5053862;28;20067;-80
2021/11/05 06:20:28;;;;;;;2.55;1.10;;;6.90;99.90;;;;;;5055703;28;20033;-80
2021/11/05 06:22:54;;;;;;;3.72;1.05;;;7.00;99.90;;;;;;5055575;28;20037;-80
2021/11/05 06:25:20;;;;;;;5.00;1.10;;;7.10;99.90;;;;;;5049953;28;20025;-80
2021/11/05 06:27:46;;;;;;;3.15;1.52;;;7.10;99.90;;;;;;5055321;28;20029;-80
2021/11/05 06:30:13;;;;;;;3.38;1.92;;;7.20;99.90;;;;;;5055128;28;20147;-79
2021/11/05 06:32:39;;;;;;;2.70;1.45;;;7.20;99.90;;;;;;5048142;28;20505;-80
2021/11/05 06:35:06;;;;;;;2.47;1.23;;;7.20;99.90;;;;;;5040329;28;20029;-80
2021/11/05 06:37:32;;;;;;;9.27;1.73;;;7.20;99.90;;;;;;5053129;28;20037;-80
2021/11/05 06:39:58;;;;;;;5.93;2.45;;;7.20;99.90;;;;;;5055617;28;20393;-81
2021/11/05 06:42:24;;;;;;;6.55;1.55;;;7.20;99.90;;;;;;5054022;28;20029;-80
2021/11/05 06:44:51;;;;;;;3.53;1.85;;;7.30;99.90;;;;;;5055268;28;20040;-78
2021/11/05 06:47:18;;;;;;;1.80;1.27;;;7.30;99.90;;;;;;5055341;28;20397;-81
2021/11/05 06:49:43;;;;;;;4.35;1.77;;;7.30;99.90;;;;;;5053333;28;20401;-79
2021/11/05 06:52:10;;;;;;;2.53;1.40;;;7.30;99.90;;;;;;5053561;28;20021;-79
2021/11/05 06:54:54;;;;;;;3.95;1.50;;;7.30;99.90;;;;;;5054075;28;20033;-80
2021/11/05 06:57:19;;;;;;;4.55;1.70;;;7.30;99.90;;;;;;5053072;28;20520;-79
2021/11/05 06:59:45;;;;;;;7.90;2.10;;;7.20;99.90;;;;;;5053386;28;20029;-80
2021/11/05 07:02:11;;;;;;;4.13;1.70;;;7.20;99.90;;;;;;5038280;28;20037;-79
2021/11/05 07:04:36;;;;;;;9.55;1.65;;;7.20;99.90;;;;;;5038453;28;20033;-79
2021/11/05 07:07:02;;;;;;;6.45;2.28;;;7.20;99.90;;;;;;5053491;28;20028;-79
2021/11/05 07:09:28;;;;;;;3.00;1.92;;;7.20;99.90;;;;;;5053885;28;20071;-80
2021/11/05 07:11:54;;;;;;;4.47;2.15;;;7.20;99.90;;;;;;5053320;28;20028;-79
2021/11/05 07:14:19;;;;;;;4.32;2.40;;;7.20;99.90;;;;;;5054657;28;20440;-79
2021/11/05 07:16:46;;;;;;;3.75;2.15;;;7.20;99.90;;;;;;5054559;28;20025;-79
2021/11/05 07:19:11;;;;;;;10.13;2.10;;;7.30;99.90;;;;;;5054970;28;20036;-78
2021/11/05 07:21:38;;;;;;;2.67;2.00;;;7.30;99.90;;;;;;5052963;28;20516;-78
2021/11/05 07:24:04;;;;;;;3.80;2.13;;;7.30;99.90;;;;;;5049194;28;20033;-79
2021/11/05 07:26:54;;;;;;;8.50;2.10;;;7.30;99.90;;;;;;5052605;28;20037;-79
2021/11/05 07:29:26;;;;;;;12.05;2.92;;;7.40;99.90;;;;;;5053578;28;20025;-79
2021/11/05 07:31:55;;;;;;;6.90;2.10;;;7.50;99.90;;;;;;5054811;28;20025;-79
2021/11/05 07:34:22;;;;;;;6.55;2.13;;;7.60;99.90;;;;;;5054137;28;20489;-79
2021/11/05 07:36:48;;;;;;;3.92;1.90;;;7.70;99.90;;;;;;5053194;28;20032;-79
2021/11/05 07:39:14;;;;;;;6.32;2.20;;;7.70;99.90;;;;;;5053713;28;20021;-78
2021/11/05 07:41:39;;;;;;;6.38;2.55;;;7.80;99.90;;;;;;5052952;28;20180;-79
2021/11/05 07:44:05;;;;;;;2.15;1.98;;;7.90;99.90;;;;;;5052943;28;20124;-80
2021/11/05 07:46:31;;;;;;;2.08;1.73;;;7.90;99.90;;;;;;5052511;28;20028;-79
2021/11/05 07:48:57;;;;;;;2.25;1.50;;;8.00;99.90;;;;;;5053638;28;20056;-80
2021/11/05 07:51:23;;;;;;;7.30;1.70;;;8.00;99.90;;;;;;5053936;28;20025;-79
2021/11/05 07:53:49;;;;;;;5.63;2.05;;;8.00;99.90;;;;;;5047328;28;20018;-79
2021/11/05 07:56:15;;;;;;;4.88;2.20;;;8.00;99.90;;;;;;5048943;28;20028;-80
2021/11/05 07:58:41;;;;;;;3.70;1.88;;;8.00;99.90;;;;;;5052702;28;20038;-80
2021/11/05 08:01:07;;;;;;;5.40;2.25;;;8.00;99.90;;;;;;5052485;28;20021;-80
2021/11/05 08:03:32;;;;;;;7.15;1.80;;;8.10;99.90;;;;;;5053142;28;20420;-80
2021/11/05 08:05:58;;;;;;;6.90;1.75;;;8.10;99.90;;;;;;5065414;28;20045;-80
2021/11/05 08:08:24;;;;;;;6.45;1.83;;;8.20;99.90;;;;;;5052623;28;20411;-81
2021/11/05 08:10:50;;;;;;;5.10;1.85;;;8.30;99.90;;;;;;5060540;28;20101;-79
2021/11/05 08:13:15;;;;;;;7.65;2.13;;;8.40;99.90;;;;;;5056462;28;20049;-80
2021/11/05 08:15:41;;;;;;;7.70;1.67;;;8.50;99.90;;;;;;5053334;28;20028;-80
2021/11/05 08:18:07;;;;;;;13.00;2.60;;;8.60;99.90;;;;;;5052204;28;20025;-79
2021/11/05 08:20:33;;;;;;;4.30;2.40;;;8.70;99.90;;;;;;5052052;28;20076;-79
2021/11/05 08:22:59;;;;;;;6.88;2.17;;;8.80;99.90;;;;;;5053283;28;20111;-78
2021/11/05 08:25:27;;;;;;;4.63;1.83;;;8.90;99.90;;;;;;5053883;28;20128;-80
2021/11/05 08:27:53;;;;;;;4.88;2.40;;;9.00;99.90;;;;;;5052228;28;20025;-79
2021/11/05 08:30:22;;;;;;;6.75;1.75;;;9.20;99.90;;;;;;5059266;28;20027;-80
2021/11/05 08:32:49;;;;;;;6.65;2.17;;;9.30;99.90;;;;;;5060380;28;20489;-79
2021/11/05 08:35:16;;;;;;;2.33;1.30;;;9.50;99.90;;;;;;5064099;28;20059;-78
2021/11/05 08:37:43;;;;;;;5.78;2.20;;;9.70;99.90;;;;;;5055148;28;20541;-78
2021/11/05 08:40:09;;;;;;;5.82;1.75;;;9.80;99.90;;;;;;5053325;28;20024;-79
2021/11/05 08:42:36;;;;;;;5.43;1.85;;;9.80;99.90;;;;;;5053738;28;20035;-78
2021/11/05 08:45:03;;;;;;;4.22;1.60;;;9.90;99.90;;;;;;5057451;28;20028;-79
2021/11/05 08:47:29;;;;;;;8.20;1.57;;;9.90;99.90;;;;;;5062665;28;20029;-78
2021/11/05 08:49:54;;;;;;;5.38;1.98;;;9.90;99.90;;;;;;5058091;28;20281;-78
2021/11/05 08:52:21;;;;;;;11.60;3.25;;;9.90;99.90;;;;;;5061742;28;20040;-80
2021/11/05 08:54:47;;;;;;;5.80;1.65;;;10.00;99.90;;;;;;5056940;28;20028;-78
2021/11/05 08:57:13;;;;;;;5.20;1.92;;;10.10;99.90;;;;;;5054614;28;20489;-79
2021/11/05 08:59:39;;;;;;;15.30;2.67;;;10.20;99.90;;;;;;5069830;28;20068;-78
2021/11/05 09:02:05;;;;;;;2.97;1.60;;;10.30;99.90;;;;;;5070905;28;20045;-78
2021/11/05 09:04:31;;;;;;;5.35;1.90;;;10.40;99.90;;;;;;5061489;28;20060;-78
2021/11/05 09:06:57;;;;;;;10.48;1.98;;;10.40;99.90;;;;;;5051419;28;20128;-78
2021/11/05 09:09:23;;;;;;;4.40;1.73;;;10.40;99.90;;;;;;5052243;28;20033;-78
2021/11/05 09:11:53;;;;;;;7.07;1.80;;;10.40;99.90;;;;;;5051189;28;20024;-78
2021/11/05 09:14:20;;;;;;;3.20;1.85;;;10.50;99.90;;;;;;5050297;28;20509;-78
2021/11/05 09:16:47;;;;;;;3.37;1.37;;;10.60;99.90;;;;;;5051319;28;20048;-78
2021/11/05 09:19:13;;;;;;;5.10;1.83;;;10.80;99.90;;;;;;5051509;28;20036;-80
2021/11/05 09:21:38;;;;;;;5.30;1.90;;;10.90;99.90;;;;;;5052464;28;20029;-80
2021/11/05 09:24:05;;;;;;;4.15;1.40;;;11.00;99.90;;;;;;5052339;28;20086;-78
2021/11/05 09:26:31;;;;;;;10.48;1.50;;;11.10;99.90;;;;;;5051847;28;20025;-79
2021/11/05 09:28:58;;;;;;;5.10;1.80;;;11.20;99.90;;;;;;5050297;28;20024;-78
2021/11/05 09:31:24;;;;;;;2.55;1.38;;;11.30;99.90;;;;;;5053227;28;20025;-74
2021/11/05 09:33:51;;;;;;;3.42;1.05;;;11.40;99.90;;;;;;5052155;28;20055;-75
2021/11/05 09:36:17;;;;;;;5.78;1.52;;;11.60;99.90;;;;;;5053073;28;20445;-79
2021/11/05 09:38:45;;;;;;;7.60;1.38;;;11.90;99.90;;;;;;5041274;28;20028;-84
2021/11/05 09:41:11;;;;;;;5.72;1.20;;;12.00;99.90;;;;;;5035278;28;20032;-84
2021/11/05 09:43:39;;;;;;;4.45;1.02;;;12.10;99.90;;;;;;5036938;28;20026;-83
2021/11/05 09:46:05;;;;;;;5.20;1.35;;;12.00;99.90;;;;;;5040238;28;20113;-78
2021/11/05 09:48:36;;;;;;;6.60;0.98;;;12.00;99.90;;;;;;5033541;28;20494;-78
2021/11/05 09:51:03;;;;;;;7.38;0.90;;;12.00;99.90;;;;;;5049923;28;20036;-78
2021/11/05 09:53:30;;;;;;;5.13;1.05;;;12.00;99.90;;;;;;5040887;28;20402;-78
2021/11/05 09:55:57;;;;;;;6.90;1.13;;;12.20;99.90;;;;;;5052823;28;20482;-78
2021/11/05 09:58:23;;;;;;;2.80;1.10;;;12.40;99.90;;;;;;5052347;28;20374;-77
2021/11/05 10:00:48;;;;;;;6.38;0.88;;;12.50;99.90;;;;;;5047772;28;20037;-78
2021/11/05 10:03:14;;;;;;;5.63;1.00;;;12.50;99.90;;;;;;5042330;28;20025;-79
2021/11/05 10:05:40;;;;;;;9.57;2.28;;;12.50;99.90;;;;;;5057421;28;20036;-79
2021/11/05 10:08:07;;;;;;;2.45;1.35;;;12.40;99.90;;;;;;5054260;28;20024;-78
2021/11/05 10:10:40;;;;;;;5.28;0.90;;;12.20;99.90;;;;;;5054251;28;20103;-79
2021/11/05 10:13:09;;;;;;;6.68;1.30;;;12.10;99.90;;;;;;5070572;28;20024;-78
2021/11/05 10:15:41;;;;;;;9.98;0.95;;;12.00;99.90;;;;;;5075037;28;20107;-78
2021/11/05 10:18:09;;;;;;;5.30;1.02;;;11.90;99.90;;;;;;5075353;28;20029;-78
2021/11/05 10:20:35;;;;;;;7.93;1.63;;;12.00;99.90;;;;;;5058117;28;20374;-79
2021/11/05 10:23:03;;;;;;;3.05;1.00;;;11.90;99.90;;;;;;5046616;28;20064;-77
2021/11/05 10:25:44;;;;;;;4.65;0.60;;;11.80;99.90;;;;;;5057481;28;20024;-78
2021/11/05 10:28:25;;;;;;;2.75;1.02;;;11.60;99.90;;;;;;5063529;28;20025;-79
2021/11/05 10:31:00;;;;;;;3.05;0.52;;;11.50;99.90;;;;;;5072929;28;20366;-81
2021/11/05 10:33:30;;;;;;;12.38;0.90;;;11.50;99.90;;;;;;5055228;28;20100;-78
2021/11/05 10:35:58;;;;;;;2.13;0.38;;;11.50;99.90;;;;;;5054624;28;20040;-80
2021/11/05 10:38:23;;;;;;;6.00;0.60;;;11.70;99.90;;;;;;5058999;28;20032;-81
2021/11/05 10:40:57;;;;;;;3.55;0.80;;;11.80;99.90;;;;;;5076344;28;20477;-81
2021/11/05 10:43:35;;;;;;;2.17;0.32;;;12.10;99.90;;;;;;5039846;28;20029;-81
2021/11/05 10:46:01;;;;;;;;;;;12.40;99.90;;;;;;5074439;28;20485;-79
2021/11/05 10:48:30;;;;;;;2.78;0.55;;;12.50;99.90;;;;;;5075604;28;20257;-77
2021/11/05 10:50:59;;;;;;;7.72;0.85;;;12.50;99.90;;;;;;5073729;28;20016;-78
2021/11/05 10:53:42;;;;;;;4.88;0.80;;;12.50;99.90;;;;;;5047494;28;20047;-78
2021/11/05 10:56:17;;;;;;;1.75;0.75;;;12.60;99.90;;;;;;5054463;28;20071;-78
2021/11/05 10:58:51;;;;;;;5.18;0.60;;;12.70;99.90;;;;;;5057693;28;20032;-78
2021/11/05 11:01:20;;;;;;;4.88;0.43;;;12.70;99.90;;;;;;5056049;28;20127;-78
2021/11/05 11:03:50;;;;;;;8.10;1.20;;;12.70;99.90;;;;;;5057949;28;20500;-78
2021/11/05 11:06:28;;;;;;;1.25;0.30;;;12.60;99.90;;;;;;5075091;28;20058;-78
2021/11/05 11:09:00;;;;;;;1.40;0.38;;;12.50;99.90;;;;;;5075993;28;20020;-78
2021/11/05 11:11:32;;;;;;;2.08;0.25;;;12.30;99.90;;;;;;5053488;28;20032;-78
2021/11/05 11:13:59;;;;;;;2.80;0.70;;;12.40;99.90;;;;;;5077634;28;20024;-78
2021/11/05 11:16:29;;;;;;;0.70;0.30;;;12.30;99.90;;;;;;5095912;28;20033;-78
2021/11/05 11:19:12;;;;;;;0.90;0.30;;;12.30;99.90;;;;;;5096995;28;20017;-78
2021/11/05 11:22:08;;;;;;;4.47;0.38;;;12.50;99.90;;;;;;5095947;28;20031;-78
2021/11/05 11:24:37;;;;;;;4.18;0.40;;;12.80;99.90;;;;;;5089734;28;20028;-78
2021/11/05 11:27:05;;;;;;;5.88;0.40;;;12.90;99.90;;;;;;5081664;28;20009;-78
2021/11/05 11:29:30;;;;;;;0.45;0.22;;;13.00;99.90;;;;;;5098490;28;20034;-78
2021/11/05 11:31:59;;;;;;;1.10;0.38;;;13.00;99.90;;;;;;5077535;28;20024;-78
2021/11/05 11:34:25;;;;;;;1.00;0.20;;;12.60;99.90;;;;;;5073928;28;20140;-79
2021/11/05 11:36:55;;;;;;;2.10;0.43;;;12.40;99.90;;;;;;5099861;28;20025;-78
2021/11/05 11:39:22;;;;;;;1.35;0.20;;;12.30;99.90;;;;;;5082527;28;20028;-78
2021/11/05 11:41:49;;;;;;;2.40;0.40;;;12.20;99.90;;;;;;5074830;28;20060;-78
2021/11/05 11:44:19;;;;;;;5.80;0.27;;;12.10;99.90;;;;;;5062658;28;20032;-78
2021/11/05 11:47:01;;;;;;;4.50;0.90;;;12.00;99.90;;;;;;5062098;28;20334;-78
2021/11/05 11:49:38;;;;;;;5.63;0.60;;;11.90;99.90;;;;;;5071888;28;20084;-78
2021/11/05 11:52:06;;;;;;;0.55;0.30;;;11.80;99.90;;;;;;5096076;28;20015;-79
2021/11/05 11:54:36;;;;;;;0.95;0.38;;;11.80;99.90;;;;;;5080159;28;20079;-78
2021/11/05 11:57:32;;;;;;;4.20;0.32;;;11.90;99.90;;;;;;5087914;28;20029;-78
2021/11/05 12:00:20;;;;;;;0.75;0.32;;;11.90;99.90;;;;;;5079053;28;20029;-77
2021/11/05 12:02:51;;;;;;;5.78;0.40;;;12.00;99.90;;;;;;5095563;28;20024;-78
2021/11/05 12:05:25;;;;;;;0.50;0.20;;;12.10;99.90;;;;;;5095418;28;20028;-77
2021/11/05 12:08:34;;;;;;;0.88;0.30;;;12.40;99.90;;;;;;5088246;28;20028;-79
2021/11/05 12:11:14;;;;;;;4.20;0.55;;;12.60;99.90;;;;;;5056632;28;20033;-77
2021/11/05 12:13:39;;;;;;;3.40;0.50;;;12.70;99.90;;;;;;5073549;28;20056;-78
2021/11/05 12:16:18;;;;;;;0.95;0.17;;;12.70;99.90;;;;;;5057651;28;20031;-77
2021/11/05 12:21:23;;;;;;;1.33;0.45;;;12.60;99.90;;;;;;5070903;28;20025;-77
2021/11/05 12:26:45;;;;;;;4.10;0.47;;;12.80;99.90;;;;;;5072757;28;20017;-78
2021/11/05 12:29:31;;;;;;;2.75;0.57;;;12.80;99.90;;;;;;5045612;28;20044;-78
2021/11/05 12:31:57;;;;;;;3.05;0.95;;;12.80;99.90;;;;;;5051054;28;20029;-78
2021/11/05 12:34:24;;;;;;;4.78;0.60;;;12.90;99.90;;;;;;5054794;28;20021;-78
2021/11/05 12:36:52;;;;;;;1.50;0.32;;;12.80;99.90;;;;;;5073290;28;20074;-79
2021/11/05 12:39:40;;;;;;;8.98;0.63;;;12.90;99.90;;;;;;5070889;28;20021;-83
2021/11/05 12:42:11;;;;;;;2.83;0.93;;;12.90;99.90;;;;;;5055640;28;20027;-81
2021/11/05 12:44:57;;;;;;;3.45;0.60;;;12.60;99.90;;;;;;5073059;28;20093;-76
2021/11/05 12:47:53;;;;;;;1.75;0.50;;;12.50;99.90;;;;;;5056093;28;20033;-80
2021/11/05 12:50:42;;;;;;;2.05;0.80;;;12.40;99.90;;;;;;5050930;28;20044;-81
2021/11/05 12:53:09;;;;;;;7.80;0.45;;;12.50;99.90;;;;;;5035478;28;20029;-80
2021/11/05 12:55:36;;;;;;;4.47;0.47;;;12.70;99.90;;;;;;5068381;28;20017;-79
2021/11/05 12:58:08;;;;;;;4.03;0.50;;;12.80;99.90;;;;;;5050070;28;20116;-79
2021/11/05 13:00:38;;;;;;;2.05;0.88;;;12.90;99.90;;;;;;5035676;28;20029;-82
2021/11/05 13:03:06;;;;;;;1.75;0.40;;;12.90;99.90;;;;;;5046063;28;20496;-84